createdAt,value
2022-12-07T00:09:23.630Z,1.800537109375
2022-12-07T00:19:23.632Z,1.6998291015625
2022-12-07T00:29:23.458Z,2.00042724609375
2022-12-07T00:39:23.381Z,2.00042724609375
2022-12-07T00:49:23.312Z,2.00042724609375
2022-12-07T00:59:23.262Z,2.29949951171875
2022-12-07T01:09:23.217Z,1.6998291015625
2022-12-07T01:19:23.120Z,1.89971923828125
2022-12-07T01:29:23.027Z,2.099609375
2022-12-07T01:39:22.949Z,2.40020751953125
2022-12-07T01:49:22.876Z,2.69927978515625
2022-12-07T01:59:22.842Z,2.29949951171875
2022-12-07T02:09:22.769Z,2.9998779296875
2022-12-07T02:19:22.768Z,2.79998779296875
2022-12-07T02:29:22.625Z,2.60009765625
2022-12-07T02:39:22.550Z,2.60009765625
2022-12-07T02:49:22.490Z,2.69927978515625
2022-12-07T02:59:22.418Z,2.29949951171875
2022-12-07T03:09:22.335Z,2.4993896484375
2022-12-07T03:19:22.251Z,2.29949951171875
2022-12-07T03:29:22.206Z,2.29949951171875
2022-12-07T03:39:22.121Z,2.2003173828125
2022-12-07T03:49:22.066Z,2.60009765625
2022-12-07T03:59:21.987Z,2.69927978515625
2022-12-07T04:09:21.927Z,2.79998779296875
2022-12-07T04:19:21.821Z,2.00042724609375
2022-12-07T04:29:21.758Z,2.099609375
2022-12-07T04:39:21.678Z,2.29949951171875
2022-12-07T04:49:21.734Z,1.800537109375
2022-12-07T04:59:21.524Z,2.29949951171875
2022-12-07T05:09:21.492Z,1.89971923828125
2022-12-07T05:19:21.399Z,1.6998291015625
2022-12-07T05:29:21.331Z,2.2003173828125
2022-12-07T05:39:21.270Z,1.800537109375
2022-12-07T05:49:21.169Z,2.4993896484375
2022-12-07T05:59:21.110Z,2.099609375
2022-12-07T06:09:21.061Z,2.69927978515625
2022-12-07T06:19:21.081Z,2.60009765625
2022-12-07T06:29:20.900Z,2.4993896484375
2022-12-07T06:39:20.833Z,2.9998779296875
2022-12-07T06:49:20.757Z,2.40020751953125
2022-12-07T06:59:20.673Z,2.40020751953125
2022-12-07T07:09:20.635Z,2.4993896484375
2022-12-07T07:19:20.651Z,2.60009765625
2022-12-07T07:29:20.464Z,2.40020751953125
2022-12-07T07:39:20.399Z,2.40020751953125
2022-12-07T07:49:20.359Z,2.4993896484375
2022-12-07T07:59:20.269Z,2.4993896484375
2022-12-07T08:09:20.208Z,2.60009765625
2022-12-07T08:19:20.150Z,2.099609375
2022-12-07T08:29:20.063Z,2.40020751953125
2022-12-07T08:39:31.284Z,2.00042724609375
2022-12-07T08:49:19.947Z,2.099609375
2022-12-07T08:59:19.843Z,2.40020751953125
2022-12-07T09:09:19.793Z,2.40020751953125
2022-12-07T09:19:19.713Z,1.6998291015625
2022-12-07T09:29:19.647Z,2.60009765625
2022-12-07T09:39:19.567Z,2.099609375
2022-12-07T09:49:19.493Z,2.60009765625
2022-12-07T09:59:19.427Z,2.69927978515625
2022-12-07T10:09:19.381Z,2.69927978515625
2022-12-07T10:19:19.293Z,2.2003173828125
2022-12-07T10:29:19.234Z,2.79998779296875
2022-12-07T10:39:19.142Z,2.099609375
2022-12-07T10:49:19.084Z,2.40020751953125
2022-12-07T10:59:19.021Z,3.1005859375
2022-12-07T11:09:18.973Z,1.89971923828125
2022-12-07T11:19:20.903Z,3.1005859375
2022-12-07T11:29:18.970Z,2.29949951171875
2022-12-07T11:39:18.758Z,2.2003173828125
2022-12-07T11:49:18.680Z,2.29949951171875
2022-12-07T11:59:18.630Z,3.1005859375
2022-12-07T12:09:41.046Z,2.60009765625
2022-12-07T12:19:18.498Z,2.40020751953125
2022-12-07T12:29:18.445Z,2.29949951171875
2022-12-07T12:39:18.320Z,2.69927978515625
2022-12-07T12:49:18.268Z,2.40020751953125
2022-12-07T12:59:18.187Z,2.29949951171875
2022-12-07T13:09:18.137Z,2.00042724609375
2022-12-07T13:19:18.053Z,2.60009765625
2022-12-07T13:29:17.981Z,2.40020751953125
2022-12-07T13:39:17.943Z,1.89971923828125
2022-12-07T13:49:17.952Z,2.00042724609375
2022-12-07T13:59:17.808Z,2.29949951171875
2022-12-07T14:09:17.715Z,2.40020751953125
2022-12-07T14:19:17.660Z,1.60064697265625
2022-12-07T14:29:17.683Z,1.800537109375
2022-12-07T14:39:17.511Z,1.89971923828125
2022-12-07T14:59:17.464Z,1.6998291015625
2022-12-07T15:09:17.311Z,1.300048828125
2022-12-07T15:19:27.883Z,2.00042724609375
2022-12-07T15:29:22.520Z,1.60064697265625
2022-12-07T15:39:17.102Z,1.89971923828125
2022-12-07T15:49:17.044Z,2.099609375
2022-12-07T15:59:16.980Z,1.49993896484375
2022-12-07T16:09:16.879Z,2.4993896484375
2022-12-07T16:19:16.807Z,1.300048828125
2022-12-07T16:29:16.745Z,1.300048828125
2022-12-07T16:39:16.690Z,1.60064697265625
2022-12-07T16:49:16.592Z,2.2003173828125
2022-12-07T16:59:16.562Z,1.399993896484375
2022-12-07T17:09:20.866Z,1.399993896484375
2022-12-07T17:19:16.403Z,1.200103759765625
2022-12-07T17:29:16.354Z,1.49993896484375
2022-12-07T17:39:16.252Z,1.300048828125
2022-12-07T17:49:16.191Z,1.49993896484375
2022-12-07T17:59:16.152Z,1.300048828125
2022-12-07T18:09:16.159Z,1.89971923828125
2022-12-07T18:19:15.990Z,1.10015869140625
2022-12-07T18:29:15.938Z,1.300048828125
2022-12-07T18:39:15.875Z,1.300048828125
2022-12-07T18:49:15.936Z,1.200103759765625
2022-12-07T18:59:15.730Z,1.800537109375
2022-12-07T19:09:15.634Z,1.200103759765625
2022-12-07T19:19:15.584Z,1.300048828125
2022-12-07T19:29:15.527Z,1.49993896484375
2022-12-07T19:39:16.031Z,1.6998291015625
2022-12-07T19:49:15.378Z,1.300048828125
2022-12-07T19:59:15.322Z,1.60064697265625
2022-12-07T20:09:15.262Z,1.10015869140625
2022-12-07T20:19:15.188Z,1.300048828125
2022-12-07T20:29:18.262Z,1.60064697265625
2022-12-07T20:39:15.047Z,1.200103759765625
2022-12-07T20:49:14.978Z,1.000213623046875
2022-12-07T20:59:14.900Z,1.800537109375
2022-12-07T21:09:14.816Z,1.000213623046875
2022-12-07T21:19:14.762Z,1.399993896484375
2022-12-07T21:29:14.652Z,1.60064697265625
2022-12-07T21:39:14.584Z,1.60064697265625
2022-12-07T21:49:14.537Z,1.399993896484375
2022-12-07T21:59:14.470Z,1.300048828125
2022-12-07T22:09:14.397Z,1.800537109375
2022-12-07T22:19:14.326Z,2.00042724609375
2022-12-07T22:29:14.235Z,2.099609375
2022-12-07T22:39:14.192Z,2.40020751953125
2022-12-07T22:49:14.085Z,2.29949951171875
2022-12-07T22:59:14.050Z,2.40020751953125
2022-12-07T23:09:13.942Z,2.2003173828125
2022-12-07T23:19:13.894Z,2.60009765625
2022-12-07T23:29:17.551Z,2.2003173828125
